sensor_id;sensor_type;location;lat;lon;timestamp;pressure;altitude;pressure_sealevel;temperature;humidity
75747;BME280;64363;52.198;21.020;2022-12-18T00:03:07;101812.16;;;-4.72;84.99
75747;BME280;64363;52.198;21.020;2022-12-18T00:05:33;101811.59;;;-4.66;84.63
75747;BME280;64363;52.198;21.020;2022-12-18T00:07:59;101820.22;;;-4.84;84.84
75747;BME280;64363;52.198;21.020;2022-12-18T00:10:24;101807.34;;;-4.97;85.88
75747;BME280;64363;52.198;21.020;2022-12-18T00:12:50;101821.00;;;-4.85;85.70
75747;BME280;64363;52.198;21.020;2022-12-18T00:15:16;101815.81;;;-4.85;85.78
75747;BME280;64363;52.198;21.020;2022-12-18T00:17:42;101829.16;;;-4.79;85.97
75747;BME280;64363;52.198;21.020;2022-12-18T00:20:08;101827.75;;;-4.72;85.33
75747;BME280;64363;52.198;21.020;2022-12-18T00:22:33;101830.22;;;-4.75;85.69
75747;BME280;64363;52.198;21.020;2022-12-18T00:24:59;101829.72;;;-4.68;85.74
75747;BME280;64363;52.198;21.020;2022-12-18T00:27:25;101836.72;;;-4.67;85.18
75747;BME280;64363;52.198;21.020;2022-12-18T00:29:51;101832.81;;;-4.59;85.49
75747;BME280;64363;52.198;21.020;2022-12-18T00:32:16;101843.75;;;-4.48;84.79
75747;BME280;64363;52.198;21.020;2022-12-18T00:34:42;101841.56;;;-4.57;85.34
75747;BME280;64363;52.198;21.020;2022-12-18T00:37:08;101847.91;;;-4.52;85.37
75747;BME280;64363;52.198;21.020;2022-12-18T00:39:33;101850.22;;;-4.58;85.97
75747;BME280;64363;52.198;21.020;2022-12-18T00:41:59;101848.41;;;-4.43;85.54
75747;BME280;64363;52.198;21.020;2022-12-18T00:44:43;101855.47;;;-4.40;84.84
75747;BME280;64363;52.198;21.020;2022-12-18T00:47:09;101851.97;;;-4.41;85.55
75747;BME280;64363;52.198;21.020;2022-12-18T00:49:34;101859.94;;;-4.38;85.19
75747;BME280;64363;52.198;21.020;2022-12-18T00:52:00;101864.50;;;-4.34;84.98
75747;BME280;64363;52.198;21.020;2022-12-18T00:54:26;101855.31;;;-4.43;84.57
75747;BME280;64363;52.198;21.020;2022-12-18T00:56:51;101855.06;;;-4.48;84.85
75747;BME280;64363;52.198;21.020;2022-12-18T00:59:17;101863.13;;;-4.43;85.30
75747;BME280;64363;52.198;21.020;2022-12-18T01:01:43;101867.44;;;-4.44;84.90
75747;BME280;64363;52.198;21.020;2022-12-18T01:04:10;101872.88;;;-4.39;85.54
75747;BME280;64363;52.198;21.020;2022-12-18T01:06:35;101872.97;;;-4.38;85.09
75747;BME280;64363;52.198;21.020;2022-12-18T01:09:02;101879.69;;;-4.41;85.44
75747;BME280;64363;52.198;21.020;2022-12-18T01:11:27;101870.03;;;-4.44;84.47
75747;BME280;64363;52.198;21.020;2022-12-18T01:13:54;101882.16;;;-4.44;85.31
75747;BME280;64363;52.198;21.020;2022-12-18T01:16:20;101879.53;;;-4.44;85.26
75747;BME280;64363;52.198;21.020;2022-12-18T01:18:46;101881.19;;;-4.30;85.55
75747;BME280;64363;52.198;21.020;2022-12-18T01:21:16;101882.53;;;-4.37;85.18
75747;BME280;64363;52.198;21.020;2022-12-18T01:23:42;101892.56;;;-4.44;84.80
75747;BME280;64363;52.198;21.020;2022-12-18T01:26:15;101892.16;;;-4.52;84.73
75747;BME280;64363;52.198;21.020;2022-12-18T01:28:42;101889.16;;;-4.59;84.89
75747;BME280;64363;52.198;21.020;2022-12-18T01:31:23;101891.09;;;-4.55;84.08
75747;BME280;64363;52.198;21.020;2022-12-18T01:33:50;101906.81;;;-4.54;84.60
75747;BME280;64363;52.198;21.020;2022-12-18T01:36:22;101901.91;;;-4.48;84.38
75747;BME280;64363;52.198;21.020;2022-12-18T01:38:48;101916.56;;;-4.50;84.08
75747;BME280;64363;52.198;21.020;2022-12-18T01:41:16;101922.19;;;-4.42;83.97
75747;BME280;64363;52.198;21.020;2022-12-18T01:43:51;101919.63;;;-4.41;84.76
75747;BME280;64363;52.198;21.020;2022-12-18T01:46:20;101920.53;;;-4.40;84.29
75747;BME280;64363;52.198;21.020;2022-12-18T01:48:52;101920.69;;;-4.37;83.34
75747;BME280;64363;52.198;21.020;2022-12-18T01:51:19;101920.88;;;-4.34;83.74
75747;BME280;64363;52.198;21.020;2022-12-18T01:53:46;101927.19;;;-4.45;83.67
75747;BME280;64363;52.198;21.020;2022-12-18T01:56:15;101934.19;;;-4.44;83.40
75747;BME280;64363;52.198;21.020;2022-12-18T01:58:54;101932.09;;;-4.51;83.64
75747;BME280;64363;52.198;21.020;2022-12-18T02:01:23;101935.00;;;-4.45;83.35
75747;BME280;64363;52.198;21.020;2022-12-18T02:03:49;101936.97;;;-4.41;83.28
75747;BME280;64363;52.198;21.020;2022-12-18T02:06:20;101938.09;;;-4.36;83.41
75747;BME280;64363;52.198;21.020;2022-12-18T02:09:09;101952.28;;;-4.31;83.25
75747;BME280;64363;52.198;21.020;2022-12-18T02:11:53;101959.69;;;-4.39;83.53
75747;BME280;64363;52.198;21.020;2022-12-18T02:14:36;101963.09;;;-4.40;83.74
75747;BME280;64363;52.198;21.020;2022-12-18T02:27:39;101973.59;;;-4.38;83.25
75747;BME280;64363;52.198;21.020;2022-12-18T02:30:08;101981.88;;;-4.29;83.27
75747;BME280;64363;52.198;21.020;2022-12-18T02:32:37;101983.13;;;-4.22;82.43
75747;BME280;64363;52.198;21.020;2022-12-18T02:35:06;101981.81;;;-4.14;82.84
75747;BME280;64363;52.198;21.020;2022-12-18T02:37:33;101984.72;;;-4.25;83.01
75747;BME280;64363;52.198;21.020;2022-12-18T02:40:02;101981.56;;;-4.19;82.25
75747;BME280;64363;52.198;21.020;2022-12-18T02:42:29;101990.97;;;-4.21;82.21
75747;BME280;64363;52.198;21.020;2022-12-18T02:44:55;101998.13;;;-4.33;82.90
75747;BME280;64363;52.198;21.020;2022-12-18T02:47:23;101997.69;;;-4.26;82.09
75747;BME280;64363;52.198;21.020;2022-12-18T02:50:17;101995.22;;;-4.23;82.32
75747;BME280;64363;52.198;21.020;2022-12-18T02:55:23;102005.75;;;-4.21;82.15
75747;BME280;64363;52.198;21.020;2022-12-18T03:00:59;102026.28;;;-4.42;83.63
75747;BME280;64363;52.198;21.020;2022-12-18T03:03:31;102030.13;;;-4.36;82.51
75747;BME280;64363;52.198;21.020;2022-12-18T03:06:46;102027.50;;;-4.36;82.79
75747;BME280;64363;52.198;21.020;2022-12-18T03:09:17;102040.63;;;-4.34;81.98
75747;BME280;64363;52.198;21.020;2022-12-18T03:11:49;102034.53;;;-4.35;82.51
75747;BME280;64363;52.198;21.020;2022-12-18T03:14:38;102040.94;;;-4.28;82.63
75747;BME280;64363;52.198;21.020;2022-12-18T03:17:05;102049.56;;;-4.29;82.25
75747;BME280;64363;52.198;21.020;2022-12-18T03:19:33;102039.97;;;-4.46;82.62
75747;BME280;64363;52.198;21.020;2022-12-18T03:22:01;102053.44;;;-4.53;82.46
75747;BME280;64363;52.198;21.020;2022-12-18T03:24:29;102047.72;;;-4.62;82.77
75747;BME280;64363;52.198;21.020;2022-12-18T03:27:06;102052.13;;;-4.61;83.16
75747;BME280;64363;52.198;21.020;2022-12-18T03:29:42;102058.56;;;-4.55;83.06
75747;BME280;64363;52.198;21.020;2022-12-18T03:32:25;102062.59;;;-4.60;83.20
75747;BME280;64363;52.198;21.020;2022-12-18T03:34:53;102069.34;;;-4.63;82.96
75747;BME280;64363;52.198;21.020;2022-12-18T03:37:20;102058.25;;;-4.76;83.31
75747;BME280;64363;52.198;21.020;2022-12-18T03:39:46;102075.19;;;-4.67;82.74
75747;BME280;64363;52.198;21.020;2022-12-18T03:42:28;102072.94;;;-4.61;83.56
75747;BME280;64363;52.198;21.020;2022-12-18T03:47:53;102075.56;;;-4.45;83.27
75747;BME280;64363;52.198;21.020;2022-12-18T03:50:29;102077.47;;;-4.43;82.84
75747;BME280;64363;52.198;21.020;2022-12-18T03:53:22;102079.47;;;-4.37;82.64
75747;BME280;64363;52.198;21.020;2022-12-18T03:55:51;102083.03;;;-4.51;82.80
75747;BME280;64363;52.198;21.020;2022-12-18T03:58:20;102080.34;;;-4.53;82.40
75747;BME280;64363;52.198;21.020;2022-12-18T04:00:50;102091.28;;;-4.44;83.10
75747;BME280;64363;52.198;21.020;2022-12-18T04:03:19;102098.50;;;-4.54;82.67
75747;BME280;64363;52.198;21.020;2022-12-18T04:05:47;102100.47;;;-4.50;82.41
75747;BME280;64363;52.198;21.020;2022-12-18T04:08:13;102096.22;;;-4.48;82.32
75747;BME280;64363;52.198;21.020;2022-12-18T04:10:39;102103.84;;;-4.51;82.08
75747;BME280;64363;52.198;21.020;2022-12-18T04:13:05;102113.38;;;-4.52;82.87
75747;BME280;64363;52.198;21.020;2022-12-18T04:15:33;102122.06;;;-4.51;82.15
75747;BME280;64363;52.198;21.020;2022-12-18T04:18:00;102122.19;;;-4.50;82.11
75747;BME280;64363;52.198;21.020;2022-12-18T04:20:26;102121.97;;;-4.38;82.35
75747;BME280;64363;52.198;21.020;2022-12-18T04:22:51;102124.63;;;-4.37;82.02
75747;BME280;64363;52.198;21.020;2022-12-18T04:25:17;102128.31;;;-4.33;82.54
75747;BME280;64363;52.198;21.020;2022-12-18T04:27:43;102125.00;;;-4.31;81.79
75747;BME280;64363;52.198;21.020;2022-12-18T04:30:08;102130.22;;;-4.45;82.70
75747;BME280;64363;52.198;21.020;2022-12-18T04:32:35;102135.25;;;-4.48;82.33
75747;BME280;64363;52.198;21.020;2022-12-18T04:35:00;102145.97;;;-4.58;81.74
75747;BME280;64363;52.198;21.020;2022-12-18T04:37:26;102148.56;;;-4.73;82.52
75747;BME280;64363;52.198;21.020;2022-12-18T04:39:52;102151.47;;;-4.83;82.66
75747;BME280;64363;52.198;21.020;2022-12-18T04:42:18;102140.06;;;-5.00;82.66
75747;BME280;64363;52.198;21.020;2022-12-18T04:44:43;102148.13;;;-5.10;83.16
75747;BME280;64363;52.198;21.020;2022-12-18T04:47:10;102155.50;;;-5.17;83.32
75747;BME280;64363;52.198;21.020;2022-12-18T04:49:35;102159.31;;;-5.26;83.74
75747;BME280;64363;52.198;21.020;2022-12-18T04:52:01;102156.81;;;-5.24;83.92
75747;BME280;64363;52.198;21.020;2022-12-18T04:54:27;102161.38;;;-5.20;83.75
75747;BME280;64363;52.198;21.020;2022-12-18T04:56:53;102158.59;;;-5.23;83.90
75747;BME280;64363;52.198;21.020;2022-12-18T04:59:18;102174.81;;;-5.27;84.83
75747;BME280;64363;52.198;21.020;2022-12-18T05:01:44;102169.91;;;-5.23;84.40
75747;BME280;64363;52.198;21.020;2022-12-18T05:04:11;102186.63;;;-5.32;84.32
75747;BME280;64363;52.198;21.020;2022-12-18T05:06:36;102177.41;;;-5.42;85.06
75747;BME280;64363;52.198;21.020;2022-12-18T05:09:02;102180.06;;;-5.40;85.26
75747;BME280;64363;52.198;21.020;2022-12-18T05:11:28;102187.34;;;-5.35;85.02
75747;BME280;64363;52.198;21.020;2022-12-18T05:13:53;102196.66;;;-5.38;84.62
75747;BME280;64363;52.198;21.020;2022-12-18T05:16:22;102201.16;;;-5.36;84.71
75747;BME280;64363;52.198;21.020;2022-12-18T05:18:48;102211.81;;;-5.46;85.12
75747;BME280;64363;52.198;21.020;2022-12-18T05:21:14;102209.31;;;-5.57;85.57
75747;BME280;64363;52.198;21.020;2022-12-18T05:23:39;102199.34;;;-5.64;85.93
75747;BME280;64363;52.198;21.020;2022-12-18T05:26:06;102211.41;;;-5.52;85.57
75747;BME280;64363;52.198;21.020;2022-12-18T05:28:34;102206.44;;;-5.62;86.00
75747;BME280;64363;52.198;21.020;2022-12-18T05:31:02;102211.72;;;-5.60;86.52
75747;BME280;64363;52.198;21.020;2022-12-18T05:33:30;102226.13;;;-5.66;86.78
75747;BME280;64363;52.198;21.020;2022-12-18T05:35:59;102224.91;;;-5.57;86.82
75747;BME280;64363;52.198;21.020;2022-12-18T05:38:28;102232.91;;;-5.54;86.83
75747;BME280;64363;52.198;21.020;2022-12-18T05:40:55;102234.91;;;-5.50;87.48
75747;BME280;64363;52.198;21.020;2022-12-18T05:43:22;102236.16;;;-5.44;87.09
75747;BME280;64363;52.198;21.020;2022-12-18T05:45:48;102252.94;;;-5.39;87.01
75747;BME280;64363;52.198;21.020;2022-12-18T05:48:15;102236.91;;;-5.59;88.61
75747;BME280;64363;52.198;21.020;2022-12-18T05:50:42;102249.50;;;-5.66;88.25
75747;BME280;64363;52.198;21.020;2022-12-18T05:53:12;102245.25;;;-5.78;89.24
75747;BME280;64363;52.198;21.020;2022-12-18T05:55:39;102244.13;;;-5.69;88.94
75747;BME280;64363;52.198;21.020;2022-12-18T05:58:06;102243.91;;;-5.58;88.15
75747;BME280;64363;52.198;21.020;2022-12-18T06:00:33;102252.25;;;-5.49;88.21
75747;BME280;64363;52.198;21.020;2022-12-18T06:03:00;102246.50;;;-5.58;88.48
75747;BME280;64363;52.198;21.020;2022-12-18T06:05:26;102255.47;;;-5.53;89.22
75747;BME280;64363;52.198;21.020;2022-12-18T06:07:52;102258.34;;;-5.49;88.85
75747;BME280;64363;52.198;21.020;2022-12-18T06:10:18;102265.34;;;-5.48;89.31
75747;BME280;64363;52.198;21.020;2022-12-18T06:12:44;102279.44;;;-5.44;89.38
75747;BME280;64363;52.198;21.020;2022-12-18T06:15:10;102276.41;;;-5.37;89.43
75747;BME280;64363;52.198;21.020;2022-12-18T06:17:36;102287.81;;;-5.35;89.98
75747;BME280;64363;52.198;21.020;2022-12-18T06:20:03;102274.94;;;-5.34;89.39
75747;BME280;64363;52.198;21.020;2022-12-18T06:22:31;102288.13;;;-5.31;89.63
75747;BME280;64363;52.198;21.020;2022-12-18T06:24:57;102300.56;;;-5.25;89.56
75747;BME280;64363;52.198;21.020;2022-12-18T06:27:24;102291.91;;;-5.26;89.45
75747;BME280;64363;52.198;21.020;2022-12-18T06:29:50;102298.47;;;-5.17;88.80
75747;BME280;64363;52.198;21.020;2022-12-18T06:32:15;102303.59;;;-5.32;89.73
75747;BME280;64363;52.198;21.020;2022-12-18T06:34:42;102305.69;;;-5.27;90.04
75747;BME280;64363;52.198;21.020;2022-12-18T06:37:07;102314.19;;;-5.29;89.37
75747;BME280;64363;52.198;21.020;2022-12-18T06:39:33;102321.38;;;-5.25;89.61
75747;BME280;64363;52.198;21.020;2022-12-18T06:41:59;102330.78;;;-5.14;89.29
75747;BME280;64363;52.198;21.020;2022-12-18T06:44:24;102325.56;;;-5.14;89.36
75747;BME280;64363;52.198;21.020;2022-12-18T06:46:50;102329.91;;;-5.00;88.94
75747;BME280;64363;52.198;21.020;2022-12-18T06:49:16;102323.19;;;-4.96;88.50
75747;BME280;64363;52.198;21.020;2022-12-18T06:51:42;102334.69;;;-4.93;88.29
75747;BME280;64363;52.198;21.020;2022-12-18T06:54:08;102335.88;;;-4.88;88.33
75747;BME280;64363;52.198;21.020;2022-12-18T06:56:34;102346.78;;;-4.93;87.20
75747;BME280;64363;52.198;21.020;2022-12-18T06:59:00;102352.22;;;-5.03;88.67
75747;BME280;64363;52.198;21.020;2022-12-18T07:01:26;102358.41;;;-5.01;88.27
75747;BME280;64363;52.198;21.020;2022-12-18T07:03:53;102355.13;;;-4.99;88.23
75747;BME280;64363;52.198;21.020;2022-12-18T07:06:21;102364.19;;;-4.92;88.35
75747;BME280;64363;52.198;21.020;2022-12-18T07:08:48;102358.41;;;-5.01;88.75
75747;BME280;64363;52.198;21.020;2022-12-18T07:11:15;102371.38;;;-4.88;88.45
75747;BME280;64363;52.198;21.020;2022-12-18T07:13:42;102375.16;;;-4.83;87.70
75747;BME280;64363;52.198;21.020;2022-12-18T07:16:13;102369.06;;;-4.84;87.95
75747;BME280;64363;52.198;21.020;2022-12-18T07:18:39;102378.69;;;-4.83;87.63
75747;BME280;64363;52.198;21.020;2022-12-18T07:21:10;102381.47;;;-4.80;87.77
75747;BME280;64363;52.198;21.020;2022-12-18T07:23:37;102392.44;;;-4.70;87.36
75747;BME280;64363;52.198;21.020;2022-12-18T07:26:08;102390.13;;;-4.66;87.58
75747;BME280;64363;52.198;21.020;2022-12-18T07:28:35;102390.06;;;-4.53;86.21
75747;BME280;64363;52.198;21.020;2022-12-18T07:31:05;102389.88;;;-4.56;86.77
75747;BME280;64363;52.198;21.020;2022-12-18T07:33:32;102399.50;;;-4.40;86.14
75747;BME280;64363;52.198;21.020;2022-12-18T07:36:02;102397.00;;;-4.39;86.19
75747;BME280;64363;52.198;21.020;2022-12-18T07:38:29;102392.16;;;-4.33;86.00
75747;BME280;64363;52.198;21.020;2022-12-18T07:41:00;102397.00;;;-4.39;85.49
75747;BME280;64363;52.198;21.020;2022-12-18T07:43:26;102394.38;;;-4.53;86.28
75747;BME280;64363;52.198;21.020;2022-12-18T07:45:52;102410.66;;;-4.70;87.25
75747;BME280;64363;52.198;21.020;2022-12-18T07:48:18;102414.47;;;-4.79;88.45
75747;BME280;64363;52.198;21.020;2022-12-18T07:50:43;102404.66;;;-4.69;88.12
75747;BME280;64363;52.198;21.020;2022-12-18T07:53:09;102420.34;;;-4.40;87.31
75747;BME280;64363;52.198;21.020;2022-12-18T07:55:34;102417.22;;;-4.35;86.56
75747;BME280;64363;52.198;21.020;2022-12-18T07:58:03;102427.59;;;-4.21;86.39
75747;BME280;64363;52.198;21.020;2022-12-18T08:00:29;102427.75;;;-4.18;85.75
75747;BME280;64363;52.198;21.020;2022-12-18T08:02:55;102435.28;;;-4.23;86.31
75747;BME280;64363;52.198;21.020;2022-12-18T08:05:21;102446.28;;;-4.14;85.60
75747;BME280;64363;52.198;21.020;2022-12-18T08:07:48;102449.88;;;-4.40;86.14
75747;BME280;64363;52.198;21.020;2022-12-18T08:10:13;102453.75;;;-4.33;85.64
75747;BME280;64363;52.198;21.020;2022-12-18T08:12:39;102450.91;;;-4.23;85.82
75747;BME280;64363;52.198;21.020;2022-12-18T08:15:06;102461.00;;;-4.14;85.60
75747;BME280;64363;52.198;21.020;2022-12-18T08:17:32;102464.78;;;-4.09;85.38
75747;BME280;64363;52.198;21.020;2022-12-18T08:19:57;102463.66;;;-4.13;85.21
75747;BME280;64363;52.198;21.020;2022-12-18T08:22:23;102464.25;;;-4.04;85.25
75747;BME280;64363;52.198;21.020;2022-12-18T08:24:49;102465.41;;;-3.99;84.56
75747;BME280;64363;52.198;21.020;2022-12-18T08:27:15;102473.84;;;-4.03;84.24
75747;BME280;64363;52.198;21.020;2022-12-18T08:29:40;102473.06;;;-3.87;83.69
75747;BME280;64363;52.198;21.020;2022-12-18T08:32:06;102485.06;;;-4.04;83.77
75747;BME280;64363;52.198;21.020;2022-12-18T08:34:32;102482.53;;;-4.17;84.47
75747;BME280;64363;52.198;21.020;2022-12-18T08:36:58;102489.19;;;-4.22;84.36
75747;BME280;64363;52.198;21.020;2022-12-18T08:39:23;102492.00;;;-4.32;85.40
75747;BME280;64363;52.198;21.020;2022-12-18T08:41:49;102488.72;;;-4.30;84.67
75747;BME280;64363;52.198;21.020;2022-12-18T08:44:33;102492.59;;;-4.08;84.18
75747;BME280;64363;52.198;21.020;2022-12-18T08:47:06;102500.03;;;-3.87;83.87
75747;BME280;64363;52.198;21.020;2022-12-18T08:49:32;102490.50;;;-3.86;82.57
75747;BME280;64363;52.198;21.020;2022-12-18T08:51:58;102496.00;;;-3.82;82.82
75747;BME280;64363;52.198;21.020;2022-12-18T08:54:24;102498.56;;;-3.96;84.02
75747;BME280;64363;52.198;21.020;2022-12-18T08:56:51;102503.97;;;-3.93;83.55
75747;BME280;64363;52.198;21.020;2022-12-18T08:59:18;102506.84;;;-3.89;84.11
75747;BME280;64363;52.198;21.020;2022-12-18T09:01:45;102516.47;;;-3.88;83.64
75747;BME280;64363;52.198;21.020;2022-12-18T09:04:11;102514.75;;;-3.87;83.21
75747;BME280;64363;52.198;21.020;2022-12-18T09:06:37;102507.56;;;-3.77;83.27
75747;BME280;64363;52.198;21.020;2022-12-18T09:09:04;102512.44;;;-3.83;83.73
75747;BME280;64363;52.198;21.020;2022-12-18T09:11:32;102512.78;;;-3.77;83.26
75747;BME280;64363;52.198;21.020;2022-12-18T09:13:59;102517.03;;;-3.64;83.15
75747;BME280;64363;52.198;21.020;2022-12-18T09:16:28;102513.72;;;-3.47;82.56
75747;BME280;64363;52.198;21.020;2022-12-18T09:18:57;102520.09;;;-3.56;83.22
75747;BME280;64363;52.198;21.020;2022-12-18T09:21:32;102520.53;;;-3.63;82.29
75747;BME280;64363;52.198;21.020;2022-12-18T09:23:58;102519.97;;;-3.87;82.73
75747;BME280;64363;52.198;21.020;2022-12-18T09:26:25;102528.00;;;-4.12;83.73
75747;BME280;64363;52.198;21.020;2022-12-18T09:28:51;102535.28;;;-3.79;82.52
75747;BME280;64363;52.198;21.020;2022-12-18T09:31:19;102522.41;;;-3.75;82.95
75747;BME280;64363;52.198;21.020;2022-12-18T09:33:45;102532.38;;;-3.68;82.33
75747;BME280;64363;52.198;21.020;2022-12-18T09:36:14;102536.47;;;-3.59;82.04
75747;BME280;64363;52.198;21.020;2022-12-18T09:38:40;102534.59;;;-3.61;81.89
75747;BME280;64363;52.198;21.020;2022-12-18T09:41:19;102539.41;;;-3.67;81.83
75747;BME280;64363;52.198;21.020;2022-12-18T09:43:53;102526.47;;;-3.66;81.92
75747;BME280;64363;52.198;21.020;2022-12-18T09:46:33;102536.97;;;-3.64;81.73
75747;BME280;64363;52.198;21.020;2022-12-18T09:49:02;102534.03;;;-3.70;82.55
75747;BME280;64363;52.198;21.020;2022-12-18T09:51:58;102531.66;;;-3.81;81.64
75747;BME280;64363;52.198;21.020;2022-12-18T09:54:33;102539.06;;;-3.59;82.64
75747;BME280;64363;52.198;21.020;2022-12-18T09:57:01;102542.81;;;-3.68;81.51
75747;BME280;64363;52.198;21.020;2022-12-18T09:59:38;102538.50;;;-3.68;81.63
75747;BME280;64363;52.198;21.020;2022-12-18T10:02:24;102529.31;;;-3.76;82.37
75747;BME280;64363;52.198;21.020;2022-12-18T10:10:07;102552.94;;;-3.88;82.03
75747;BME280;64363;52.198;21.020;2022-12-18T10:12:47;102547.72;;;-3.88;82.15
75747;BME280;64363;52.198;21.020;2022-12-18T10:15:27;102562.63;;;-3.85;82.05
75747;BME280;64363;52.198;21.020;2022-12-18T10:21:00;102558.28;;;-3.71;82.42
75747;BME280;64363;52.198;21.020;2022-12-18T10:26:05;102570.41;;;-3.72;81.91
75747;BME280;64363;52.198;21.020;2022-12-18T10:28:33;102564.09;;;-3.75;82.90
75747;BME280;64363;52.198;21.020;2022-12-18T10:31:20;102566.00;;;-3.73;82.17
75747;BME280;64363;52.198;21.020;2022-12-18T10:33:47;102541.00;;;-3.84;82.81
75747;BME280;64363;52.198;21.020;2022-12-18T10:36:12;102563.31;;;-3.74;82.04
75747;BME280;64363;52.198;21.020;2022-12-18T10:38:39;102551.47;;;-3.69;82.47
75747;BME280;64363;52.198;21.020;2022-12-18T10:41:25;102546.94;;;-3.72;82.38
75747;BME280;64363;52.198;21.020;2022-12-18T10:44:12;102555.00;;;-3.54;82.31
75747;BME280;64363;52.198;21.020;2022-12-18T10:46:38;102548.41;;;-3.48;82.23
75747;BME280;64363;52.198;21.020;2022-12-18T10:49:04;102554.91;;;-3.26;81.61
75747;BME280;64363;52.198;21.020;2022-12-18T10:51:33;102555.47;;;-3.17;80.99
75747;BME280;64363;52.198;21.020;2022-12-18T10:54:23;102549.34;;;-3.18;79.95
75747;BME280;64363;52.198;21.020;2022-12-18T10:56:49;102540.88;;;-3.28;79.54
75747;BME280;64363;52.198;21.020;2022-12-18T10:59:17;102549.50;;;-3.15;80.44
75747;BME280;64363;52.198;21.020;2022-12-18T11:01:57;102566.06;;;-3.00;79.78
75747;BME280;64363;52.198;21.020;2022-12-18T11:04:24;102564.84;;;-2.75;78.69
75747;BME280;64363;52.198;21.020;2022-12-18T11:09:30;102544.06;;;-2.89;78.94
75747;BME280;64363;52.198;21.020;2022-12-18T11:11:59;102551.72;;;-2.92;79.04
75747;BME280;64363;52.198;21.020;2022-12-18T11:14:28;102562.28;;;-3.19;80.17
75747;BME280;64363;52.198;21.020;2022-12-18T11:16:56;102563.81;;;-3.23;80.96
75747;BME280;64363;52.198;21.020;2022-12-18T11:19:34;102565.44;;;-3.10;80.36
75747;BME280;64363;52.198;21.020;2022-12-18T11:22:02;102555.88;;;-3.24;81.67
75747;BME280;64363;52.198;21.020;2022-12-18T11:24:35;102565.19;;;-3.29;80.17
75747;BME280;64363;52.198;21.020;2022-12-18T11:27:03;102568.22;;;-3.22;80.56
75747;BME280;64363;52.198;21.020;2022-12-18T11:29:35;102566.06;;;-3.29;81.26
75747;BME280;64363;52.198;21.020;2022-12-18T11:32:37;102566.97;;;-3.14;80.94
75747;BME280;64363;52.198;21.020;2022-12-18T11:35:14;102578.47;;;-3.10;79.88
75747;BME280;64363;52.198;21.020;2022-12-18T11:37:43;102574.50;;;-3.04;80.18
75747;BME280;64363;52.198;21.020;2022-12-18T11:40:16;102572.78;;;-2.89;79.68
75747;BME280;64363;52.198;21.020;2022-12-18T11:42:52;102570.81;;;-2.93;80.30
75747;BME280;64363;52.198;21.020;2022-12-18T11:45:25;102573.06;;;-2.99;81.18
75747;BME280;64363;52.198;21.020;2022-12-18T11:47:54;102575.06;;;-2.95;79.16
75747;BME280;64363;52.198;21.020;2022-12-18T11:50:26;102566.69;;;-3.04;79.95
75747;BME280;64363;52.198;21.020;2022-12-18T11:52:54;102570.53;;;-2.83;80.26
75747;BME280;64363;52.198;21.020;2022-12-18T11:55:51;102578.06;;;-2.72;78.41
75747;BME280;64363;52.198;21.020;2022-12-18T11:58:46;102571.84;;;-2.60;78.01
75747;BME280;64363;52.198;21.020;2022-12-18T12:09:52;102581.41;;;-2.44;77.50
75747;BME280;64363;52.198;21.020;2022-12-18T12:15:13;102577.56;;;-2.20;76.88
75747;BME280;64363;52.198;21.020;2022-12-18T12:18:05;102574.97;;;-2.04;77.40
75747;BME280;64363;52.198;21.020;2022-12-18T12:20:47;102565.34;;;-2.21;77.69
75747;BME280;64363;52.198;21.020;2022-12-18T12:26:05;102581.66;;;-2.25;76.25
75747;BME280;64363;52.198;21.020;2022-12-18T12:36:41;102599.59;;;-2.76;78.63
75747;BME280;64363;52.198;21.020;2022-12-18T12:39:13;102609.38;;;-2.72;78.89
75747;BME280;64363;52.198;21.020;2022-12-18T12:41:42;102611.03;;;-2.74;78.04
75747;BME280;64363;52.198;21.020;2022-12-18T12:44:39;102608.69;;;-2.85;78.82
75747;BME280;64363;52.198;21.020;2022-12-18T12:47:17;102608.16;;;-2.94;79.34
75747;BME280;64363;52.198;21.020;2022-12-18T12:49:45;102613.56;;;-2.91;78.99
75747;BME280;64363;52.198;21.020;2022-12-18T12:52:39;102622.47;;;-2.87;79.02
75747;BME280;64363;52.198;21.020;2022-12-18T12:55:22;102623.47;;;-2.85;79.58
75747;BME280;64363;52.198;21.020;2022-12-18T13:00:22;102635.88;;;-2.96;78.54
75747;BME280;64363;52.198;21.020;2022-12-18T13:03:08;102632.47;;;-2.95;78.67
75747;BME280;64363;52.198;21.020;2022-12-18T13:05:58;102640.47;;;-3.06;79.89
75747;BME280;64363;52.198;21.020;2022-12-18T13:08:27;102639.75;;;-3.04;79.94
75747;BME280;64363;52.198;21.020;2022-12-18T13:10:55;102645.13;;;-3.01;80.22
75747;BME280;64363;52.198;21.020;2022-12-18T13:16:18;102658.56;;;-2.95;79.64
75747;BME280;64363;52.198;21.020;2022-12-18T13:18:55;102659.75;;;-2.90;79.89
75747;BME280;64363;52.198;21.020;2022-12-18T13:21:30;102661.63;;;-2.87;79.42
75747;BME280;64363;52.198;21.020;2022-12-18T13:23:56;102667.34;;;-2.93;79.14
75747;BME280;64363;52.198;21.020;2022-12-18T13:26:34;102670.97;;;-2.91;78.92
75747;BME280;64363;52.198;21.020;2022-12-18T13:28:59;102664.59;;;-2.81;79.40
75747;BME280;64363;52.198;21.020;2022-12-18T13:34:22;102663.66;;;-3.11;80.46
75747;BME280;64363;52.198;21.020;2022-12-18T13:36:49;102664.28;;;-3.15;80.68
75747;BME280;64363;52.198;21.020;2022-12-18T13:41:49;102669.56;;;-3.28;80.50
75747;BME280;64363;52.198;21.020;2022-12-18T13:44:40;102670.53;;;-3.41;82.14
75747;BME280;64363;52.198;21.020;2022-12-18T13:47:28;102667.59;;;-3.32;82.02
75747;BME280;64363;52.198;21.020;2022-12-18T13:49:56;102662.66;;;-3.27;81.84
75747;BME280;64363;52.198;21.020;2022-12-18T13:52:28;102675.06;;;-3.23;81.16
75747;BME280;64363;52.198;21.020;2022-12-18T13:54:56;102679.38;;;-3.24;81.61
75747;BME280;64363;52.198;21.020;2022-12-18T13:57:33;102684.72;;;-3.22;81.55
75747;BME280;64363;52.198;21.020;2022-12-18T14:02:44;102685.47;;;-3.38;81.77
75747;BME280;64363;52.198;21.020;2022-12-18T14:05:32;102687.66;;;-3.31;81.12